createdAt,value
2019-05-23T00:38:05.638Z,8.17
2019-05-23T00:38:06.218Z,8.14
2019-05-23T00:38:06.811Z,8.15
2019-05-23T00:38:07.415Z,8.15
2019-05-23T00:38:08.010Z,8.15
2019-05-23T00:38:08.611Z,8.12
2019-05-23T00:39:03.288Z,8.07
2019-05-23T00:39:03.864Z,8.14
2019-05-23T00:39:04.465Z,8.17
2019-05-23T00:39:05.065Z,8.12
2019-05-23T00:39:05.664Z,8.14
2019-05-23T00:39:06.263Z,8.14
2019-05-23T00:40:00.943Z,8.11
2019-05-23T00:40:01.517Z,8.14
2019-05-23T00:40:02.122Z,8.15
2019-05-23T00:40:02.716Z,8.18
2019-05-23T00:40:03.315Z,8.14
2019-05-23T00:40:59.618Z,8.11
2019-05-23T00:41:00.192Z,8.14
2019-05-23T00:41:00.792Z,8.11
2019-05-23T00:41:01.391Z,8.17
2019-05-23T00:41:01.993Z,8.18
2019-05-23T00:41:02.592Z,8.10
2019-05-23T00:41:57.270Z,8.11
2019-05-23T00:41:57.854Z,8.12
2019-05-23T00:41:58.444Z,8.08
2019-05-23T00:41:59.044Z,8.08
2019-05-23T00:41:59.650Z,8.12
2019-05-23T00:42:00.246Z,8.04
2019-05-23T00:42:55.946Z,8.18
2019-05-23T00:42:56.519Z,8.04
2019-05-23T00:42:57.119Z,8.12
2019-05-23T00:42:57.721Z,8.07
2019-05-23T00:42:58.319Z,8.12
2019-05-23T00:43:00.121Z,8.08
2019-05-23T00:43:53.599Z,8.08
2019-05-23T00:43:54.178Z,8.10
2019-05-23T00:43:54.773Z,8.17
2019-05-23T00:43:55.374Z,8.15
2019-05-23T00:43:55.973Z,8.12
2019-05-23T00:44:51.252Z,8.11
2019-05-23T00:44:51.830Z,8.08
2019-05-23T00:44:52.424Z,8.12
2019-05-23T00:44:53.024Z,8.12
2019-05-23T00:44:53.625Z,8.12
2019-05-23T00:44:54.224Z,8.11
2019-05-23T00:45:48.906Z,8.11
2019-05-23T00:45:49.477Z,8.15
2019-05-23T00:45:50.077Z,8.14
2019-05-23T00:45:50.677Z,8.11
2019-05-23T00:45:51.280Z,8.14
2019-05-23T00:45:51.879Z,8.07
2019-05-23T00:46:47.579Z,8.12
2019-05-23T00:46:48.155Z,8.12
2019-05-23T00:46:48.753Z,8.08
2019-05-23T00:46:49.357Z,8.07
2019-05-23T00:46:49.952Z,8.10
2019-05-23T00:46:51.754Z,8.11
2019-05-23T00:47:45.232Z,8.10
2019-05-23T00:47:45.808Z,8.10
2019-05-23T00:47:46.405Z,8.11
2019-05-23T00:47:47.005Z,8.10
2019-05-23T00:47:47.605Z,8.08
2019-05-23T00:48:43.933Z,8.17
2019-05-23T00:48:44.479Z,8.04
2019-05-23T00:48:45.079Z,8.11
2019-05-23T00:48:45.685Z,8.17
2019-05-23T00:48:46.278Z,8.17
2019-05-23T00:48:46.877Z,8.11
2019-05-23T00:49:42.583Z,8.18
2019-05-23T00:49:43.160Z,8.07
2019-05-23T00:49:43.817Z,8.14
2019-05-23T00:49:44.358Z,8.08
2019-05-23T00:49:44.955Z,8.10
2019-05-23T00:49:45.560Z,8.17
2019-05-23T00:50:40.234Z,8.12
2019-05-23T00:50:40.809Z,8.15
2019-05-23T00:50:41.445Z,8.15
2019-05-23T00:50:42.008Z,8.18
2019-05-23T00:50:42.608Z,8.12
2019-05-23T00:50:44.409Z,8.12
2019-05-23T00:51:38.910Z,8.14
2019-05-23T00:51:39.484Z,8.17
2019-05-23T00:51:40.082Z,8.12
2019-05-23T00:51:40.684Z,8.18
2019-05-23T00:51:41.283Z,8.08
2019-05-23T00:52:36.565Z,8.17
2019-05-23T00:52:37.135Z,8.12
2019-05-23T00:52:37.736Z,8.12
2019-05-23T00:52:38.337Z,8.15
2019-05-23T00:52:38.935Z,8.20
2019-05-23T00:52:39.535Z,8.12
2019-05-23T00:53:35.251Z,8.20
2019-05-23T00:53:35.891Z,8.18
2019-05-23T00:53:36.417Z,8.22
2019-05-23T00:53:37.027Z,8.15
2019-05-23T00:53:37.650Z,8.15
2019-05-23T00:53:38.211Z,8.12
2019-05-23T00:54:33.913Z,8.10
2019-05-23T00:54:34.487Z,8.17
2019-05-23T00:54:35.091Z,8.17
2019-05-23T00:54:35.687Z,8.18
2019-05-23T00:54:36.286Z,8.10
2019-05-23T00:54:36.886Z,8.22
2019-05-23T00:55:32.590Z,8.15
2019-05-23T00:55:33.162Z,8.18
2019-05-23T00:55:33.762Z,8.28
2019-05-23T00:55:34.363Z,8.12
2019-05-23T00:55:34.963Z,8.20
2019-05-23T00:55:36.762Z,8.21
2019-05-23T00:56:31.267Z,8.15
2019-05-23T00:56:31.839Z,8.17
2019-05-23T00:56:32.438Z,8.22
2019-05-23T00:56:33.039Z,8.18
2019-05-23T00:56:33.639Z,8.18
2019-05-23T00:57:29.940Z,8.18
2019-05-23T00:57:30.513Z,8.22
2019-05-23T00:57:31.114Z,8.30
2019-05-23T00:57:31.717Z,8.20
2019-05-23T00:57:32.314Z,8.21
2019-05-23T00:57:32.919Z,8.20
2019-05-23T00:58:28.619Z,8.28
2019-05-23T00:58:29.190Z,8.26
2019-05-23T00:58:29.789Z,8.25
2019-05-23T00:58:30.391Z,8.29
2019-05-23T00:58:30.989Z,8.28
2019-05-23T00:58:31.590Z,8.21
2019-05-23T00:59:27.769Z,8.25
2019-05-23T00:59:27.868Z,8.28
2019-05-23T00:59:28.029Z,8.30
2019-05-23T00:59:28.113Z,8.25
2019-05-23T00:59:28.642Z,8.30
2019-05-23T00:59:30.441Z,8.25
2019-05-23T01:00:24.945Z,8.26
2019-05-23T01:00:25.518Z,8.28
2019-05-23T01:00:26.186Z,8.22
2019-05-23T01:00:26.719Z,8.28
2019-05-23T01:00:27.320Z,8.29
2019-05-23T01:01:22.603Z,8.29
2019-05-23T01:01:23.169Z,8.30
2019-05-23T01:01:23.770Z,8.22
2019-05-23T01:01:24.368Z,8.29
2019-05-23T01:01:24.977Z,8.32
2019-05-23T01:01:25.567Z,8.29
2019-05-23T01:02:21.276Z,8.28
2019-05-23T01:02:21.846Z,8.35
2019-05-23T01:02:22.445Z,8.36
2019-05-23T01:02:23.044Z,8.30
2019-05-23T01:02:23.644Z,8.32
2019-05-23T01:02:24.244Z,8.32
2019-05-23T01:03:18.970Z,8.36
2019-05-23T01:03:19.499Z,8.26
2019-05-23T01:03:20.098Z,8.33
2019-05-23T01:03:20.721Z,8.30
2019-05-23T01:03:21.297Z,8.39
2019-05-23T01:03:23.098Z,8.36
2019-05-23T01:04:17.600Z,8.36
2019-05-23T01:04:18.172Z,8.30
2019-05-23T01:04:18.776Z,8.33
2019-05-23T01:04:19.372Z,8.37
2019-05-23T01:04:19.971Z,8.37
2019-05-23T01:05:16.274Z,8.33
2019-05-23T01:05:16.849Z,8.42
2019-05-23T01:05:17.449Z,8.40
2019-05-23T01:05:18.051Z,8.36
2019-05-23T01:05:18.648Z,8.42
2019-05-23T01:05:19.247Z,8.40
2019-05-23T01:06:13.944Z,8.35
2019-05-23T01:06:14.501Z,8.39
2019-05-23T01:06:15.101Z,8.40
2019-05-23T01:06:15.706Z,8.36
2019-05-23T01:06:16.315Z,8.33
2019-05-23T01:06:16.899Z,8.33
2019-05-23T01:07:11.579Z,8.35
2019-05-23T01:07:12.152Z,8.36
2019-05-23T01:07:12.752Z,8.39
2019-05-23T01:07:13.354Z,8.39
2019-05-23T01:07:13.960Z,8.40
2019-05-23T01:08:09.231Z,8.35
2019-05-23T01:08:09.804Z,8.40
2019-05-23T01:08:10.404Z,8.44
2019-05-23T01:08:11.007Z,8.39
2019-05-23T01:08:11.608Z,8.44
2019-05-23T01:08:12.205Z,8.39
2019-05-23T04:51:26.391Z,10.89
2019-05-23T04:51:26.920Z,10.86
2019-05-23T04:51:27.520Z,10.96
2019-05-23T04:51:28.140Z,10.95
2019-05-23T04:51:28.721Z,11.01
2019-05-23T04:51:29.321Z,10.91
2019-05-23T04:52:24.000Z,11.03
2019-05-23T04:52:24.574Z,11.03
2019-05-23T04:52:25.173Z,10.99
2019-05-23T04:52:25.772Z,11.06
2019-05-23T04:52:26.374Z,10.95
2019-05-23T04:52:26.973Z,11.03
2019-05-23T04:53:22.682Z,10.99
2019-05-23T04:53:23.259Z,10.99
2019-05-23T04:53:23.847Z,11.01
2019-05-23T04:53:24.450Z,11.06
2019-05-23T04:53:25.048Z,11.03
2019-05-23T04:53:26.846Z,10.99
2019-05-23T04:54:20.328Z,11.06
2019-05-23T04:54:20.903Z,11.06
2019-05-23T04:54:21.501Z,11.03
2019-05-23T04:54:22.103Z,11.07
2019-05-23T04:54:22.701Z,11.02
2019-05-23T04:55:19.003Z,11.13
2019-05-23T04:55:19.576Z,11.07
2019-05-23T04:55:20.176Z,11.10
2019-05-23T04:55:20.775Z,11.07
2019-05-23T04:55:21.376Z,11.10
2019-05-23T04:55:21.977Z,11.03
2019-05-23T04:56:16.657Z,11.13
2019-05-23T04:56:17.232Z,11.09
2019-05-23T04:56:17.829Z,11.13
2019-05-23T04:56:18.429Z,11.19
2019-05-23T04:56:19.028Z,11.07
2019-05-23T04:56:19.630Z,11.13
2019-05-23T04:57:14.318Z,11.21
2019-05-23T04:57:14.882Z,11.16
2019-05-23T04:57:15.481Z,11.13
2019-05-23T04:57:16.135Z,11.11
2019-05-23T04:57:16.681Z,11.07
2019-05-23T04:58:11.962Z,11.24
2019-05-23T04:58:12.533Z,11.25
2019-05-23T04:58:13.131Z,11.21
2019-05-23T04:58:13.735Z,11.21
2019-05-23T04:58:14.333Z,11.25
2019-05-23T04:58:14.933Z,11.19
2019-05-23T04:59:10.635Z,11.28
2019-05-23T04:59:11.213Z,11.29
2019-05-23T04:59:11.811Z,11.27
2019-05-23T04:59:12.408Z,11.27
2019-05-23T04:59:13.008Z,11.31
2019-05-23T04:59:13.608Z,11.24
2019-05-23T05:00:12.296Z,11.31
2019-05-23T05:00:12.866Z,11.28
2019-05-23T05:00:13.455Z,11.31
2019-05-23T05:03:18.947Z,11.74
2019-05-23T05:03:19.121Z,11.99
2019-05-23T05:03:19.718Z,11.97
2019-05-23T05:03:20.314Z,11.99
2019-05-23T05:03:20.924Z,12.02
2019-05-23T05:03:21.515Z,12.04
2019-05-23T05:04:15.592Z,13.30
2019-05-23T05:04:16.160Z,13.36
2019-05-23T05:04:16.759Z,13.32
2019-05-23T05:04:17.360Z,13.43
2019-05-23T05:04:17.962Z,13.32
2019-05-23T05:04:19.168Z,13.46
2019-05-23T05:05:13.239Z,15.24
2019-05-23T05:05:13.831Z,15.24
2019-05-23T05:05:14.414Z,15.30
2019-05-23T05:05:15.013Z,15.31
2019-05-23T05:05:15.614Z,15.41
2019-05-23T05:06:10.889Z,16.98
2019-05-23T05:06:11.464Z,16.96
2019-05-23T05:06:12.078Z,16.96
2019-05-23T05:06:12.662Z,16.99
2019-05-23T05:06:13.264Z,16.99
2019-05-23T05:06:13.866Z,17.00
2019-05-23T05:07:09.571Z,17.08
2019-05-23T05:07:10.139Z,16.99
2019-05-23T05:07:10.737Z,17.06
2019-05-23T05:07:11.342Z,17.08
2019-05-23T05:07:11.937Z,17.07
2019-05-23T05:07:12.539Z,17.04
2019-05-23T05:08:07.261Z,16.78
2019-05-23T05:08:07.815Z,16.80
2019-05-23T05:08:08.511Z,16.71
2019-05-23T05:08:09.005Z,16.85
2019-05-23T05:08:09.693Z,16.83
2019-05-23T05:08:11.400Z,16.85
2019-05-23T05:09:05.894Z,16.89
2019-05-23T05:09:06.466Z,16.80
2019-05-23T05:09:07.069Z,16.88
2019-05-23T05:09:07.669Z,16.85
2019-05-23T05:09:08.268Z,16.85
2019-05-23T05:10:04.571Z,17.00
2019-05-23T05:10:05.142Z,16.98
2019-05-23T05:10:05.742Z,16.95
2019-05-23T05:10:06.347Z,16.99
2019-05-23T05:10:06.941Z,16.93
2019-05-23T05:10:07.544Z,16.98
2019-05-23T05:11:03.246Z,16.74
2019-05-23T05:11:03.818Z,16.78
2019-05-23T05:11:04.418Z,16.83
2019-05-23T05:11:05.024Z,16.74
2019-05-23T05:11:05.617Z,16.73
2019-05-23T05:11:06.218Z,16.78
2019-05-23T05:12:01.921Z,16.44
2019-05-23T05:12:02.503Z,16.48
2019-05-23T05:12:03.098Z,16.44
2019-05-23T05:12:03.709Z,16.48
2019-05-23T05:12:04.304Z,16.44
2019-05-23T05:12:04.893Z,16.52
2019-05-23T05:13:00.597Z,16.15
2019-05-23T05:13:01.172Z,16.22
2019-05-23T05:13:01.776Z,16.18
2019-05-23T05:13:02.372Z,16.25
2019-05-23T05:13:02.969Z,16.20
2019-05-23T05:13:04.769Z,16.18
2019-05-23T05:13:58.249Z,16.27
2019-05-23T05:13:58.823Z,16.26
2019-05-23T05:13:59.441Z,16.25
2019-05-23T05:14:00.025Z,16.26
2019-05-23T05:14:00.624Z,16.25
2019-05-23T05:14:55.902Z,16.59
2019-05-23T05:14:56.476Z,16.60
2019-05-23T05:14:57.085Z,16.65
2019-05-23T05:14:57.672Z,16.74
2019-05-23T05:14:58.274Z,16.59
2019-05-23T05:14:58.873Z,16.68
2019-05-23T05:15:54.576Z,17.10
2019-05-23T05:15:55.149Z,17.14
2019-05-23T05:15:55.750Z,17.14
2019-05-23T05:15:56.348Z,17.10
2019-05-23T05:15:56.950Z,17.14
2019-05-23T05:15:57.549Z,17.07
2019-05-23T05:16:53.257Z,17.41
2019-05-23T05:16:53.825Z,17.43
2019-05-23T05:16:54.425Z,17.43
2019-05-23T05:16:55.025Z,17.41
2019-05-23T05:16:55.623Z,17.41
2019-05-23T05:16:56.225Z,17.46
2019-05-23T05:17:51.927Z,17.57
2019-05-23T05:17:52.507Z,17.59
2019-05-23T05:17:53.175Z,17.57
2019-05-23T05:17:53.704Z,17.55
2019-05-23T05:17:54.307Z,17.57
2019-05-23T05:17:56.099Z,17.54
2019-05-23T05:18:49.581Z,17.63
2019-05-23T05:18:50.155Z,17.63
2019-05-23T05:18:50.755Z,17.70
2019-05-23T05:18:54.943Z,17.69
2019-05-23T05:18:55.056Z,17.67
2019-05-23T05:19:48.257Z,17.59
2019-05-23T05:19:48.830Z,17.59
2019-05-23T05:19:49.428Z,17.63
2019-05-23T05:19:50.028Z,17.62
2019-05-23T05:19:50.650Z,17.66
2019-05-23T05:19:51.227Z,17.63
2019-05-23T05:20:46.932Z,17.55
2019-05-23T05:20:47.505Z,17.54
2019-05-23T05:20:48.103Z,17.62
2019-05-23T05:20:48.704Z,17.64
2019-05-23T05:20:49.304Z,17.55
2019-05-23T05:20:49.904Z,17.66
2019-05-23T05:21:45.606Z,17.50
2019-05-23T05:21:46.180Z,17.44
2019-05-23T05:21:46.781Z,17.43
2019-05-23T05:21:47.379Z,17.46
2019-05-23T05:21:47.979Z,17.47
2019-05-23T05:21:48.579Z,17.46
2019-05-23T05:22:43.264Z,17.41
2019-05-23T05:22:43.832Z,17.43
2019-05-23T05:22:44.435Z,17.35
2019-05-23T05:22:45.032Z,17.51
2019-05-23T05:22:45.646Z,17.47
2019-05-23T05:23:41.936Z,17.43
2019-05-23T05:23:42.507Z,17.47
2019-05-23T05:23:43.107Z,17.46
2019-05-23T05:23:43.710Z,17.48
2019-05-23T05:23:44.309Z,17.51
2019-05-23T05:23:44.907Z,17.51
2019-05-23T05:24:40.610Z,17.67
2019-05-23T05:24:41.209Z,17.66
2019-05-23T05:24:41.802Z,17.73
2019-05-23T05:24:42.392Z,17.74
2019-05-23T05:24:42.982Z,17.70
2019-05-23T05:24:43.585Z,17.66
2019-05-23T05:25:39.286Z,17.99
2019-05-23T05:25:39.862Z,18.10
2019-05-23T05:25:40.459Z,18.13
2019-05-23T05:25:41.059Z,18.02
2019-05-23T05:25:41.660Z,18.07
2019-05-23T05:25:42.259Z,18.06
2019-05-23T05:26:37.962Z,18.58
2019-05-23T05:26:38.537Z,18.54
2019-05-23T05:26:39.136Z,18.57
2019-05-23T05:26:39.739Z,18.59
2019-05-23T05:26:40.335Z,18.59
2019-05-23T05:26:42.132Z,18.62
2019-05-23T05:27:35.619Z,19.17
2019-05-23T05:27:36.187Z,19.15
2019-05-23T05:27:36.791Z,19.17
2019-05-23T05:27:37.387Z,19.14
2019-05-23T05:27:37.986Z,19.11
2019-05-23T05:28:33.266Z,19.65
2019-05-23T05:28:33.840Z,19.66
2019-05-23T05:28:34.445Z,19.61
2019-05-23T05:28:35.037Z,19.68
2019-05-23T05:28:35.638Z,19.66
2019-05-23T05:28:36.238Z,19.72
2019-05-23T05:29:30.919Z,19.97
2019-05-23T05:29:31.492Z,19.97
2019-05-23T05:29:32.093Z,19.97
2019-05-23T05:29:32.688Z,19.95
2019-05-23T05:29:33.289Z,20.00
2019-05-23T05:29:33.888Z,19.95
2019-05-23T05:30:29.595Z,20.56
2019-05-23T05:30:30.166Z,20.53
2019-05-23T05:30:30.767Z,20.51
2019-05-23T05:30:31.369Z,20.56
2019-05-23T05:30:31.970Z,20.53
2019-05-23T05:30:33.787Z,20.58
2019-05-23T05:31:27.246Z,20.99
2019-05-23T05:31:27.821Z,21.02
2019-05-23T05:31:28.419Z,21.01
2019-05-23T05:31:29.023Z,21.02
2019-05-23T05:31:29.632Z,21.02
2019-05-23T05:32:42.862Z,21.61
2019-05-23T05:32:42.870Z,21.67
2019-05-23T05:32:43.320Z,21.61
2019-05-23T05:32:43.324Z,21.66
2019-05-23T05:32:43.392Z,21.72
2019-05-23T05:32:43.485Z,21.71
2019-05-23T05:33:23.628Z,22.17
2019-05-23T05:33:24.145Z,22.16
2019-05-23T05:33:24.745Z,22.14
2019-05-23T05:33:25.345Z,22.19
2019-05-23T05:33:25.945Z,22.19
2019-05-23T05:33:26.543Z,22.17
2019-05-23T05:34:21.227Z,22.53
2019-05-23T05:34:21.798Z,22.56
2019-05-23T05:34:22.397Z,22.59
2019-05-23T05:34:22.998Z,22.57
2019-05-23T05:34:23.598Z,22.62
2019-05-23T05:35:19.900Z,22.92
2019-05-23T05:35:20.475Z,22.97
2019-05-23T05:35:21.090Z,23.02
2019-05-23T05:35:21.674Z,23.05
2019-05-23T05:35:22.274Z,23.09
2019-05-23T05:35:22.875Z,23.05
2019-05-23T05:36:18.579Z,23.53
2019-05-23T05:36:19.151Z,23.55
2019-05-23T05:36:19.750Z,23.55
2019-05-23T05:36:20.353Z,23.57
2019-05-23T05:36:20.951Z,23.57
2019-05-23T05:36:21.550Z,23.50
2019-05-23T05:37:17.263Z,23.76
2019-05-23T05:37:17.825Z,23.79
2019-05-23T05:37:18.425Z,23.79
2019-05-23T05:37:19.025Z,23.75
2019-05-23T05:37:19.630Z,23.72
2019-05-23T05:37:20.223Z,23.80
2019-05-23T05:38:15.930Z,23.83
2019-05-23T05:38:16.514Z,23.83
2019-05-23T05:38:17.107Z,23.83
2019-05-23T05:38:17.700Z,23.80
2019-05-23T05:38:18.299Z,23.85
2019-05-23T05:38:20.105Z,23.87
2019-05-23T05:39:13.580Z,23.85
2019-05-23T05:39:14.178Z,23.82
2019-05-23T05:39:14.752Z,23.86
2019-05-23T05:39:15.351Z,23.94
2019-05-23T05:39:15.953Z,23.87
2019-05-23T05:40:11.237Z,24.12
2019-05-23T05:40:11.804Z,24.19
2019-05-23T05:40:12.403Z,24.12
2019-05-23T05:40:13.007Z,24.14
2019-05-23T05:40:13.605Z,24.16
2019-05-23T05:40:14.208Z,24.12
2019-05-23T05:41:10.418Z,24.49
2019-05-23T05:41:10.992Z,24.47
2019-05-23T05:41:11.591Z,24.44
2019-05-23T05:41:12.191Z,24.47
2019-05-23T05:41:12.795Z,24.45
2019-05-23T05:41:13.391Z,24.50
2019-05-23T05:42:08.483Z,24.64
2019-05-23T05:42:09.053Z,24.73
2019-05-23T05:42:09.663Z,24.75
2019-05-23T05:42:10.253Z,24.82
2019-05-23T05:42:10.852Z,24.69
2019-05-23T05:42:11.451Z,24.77
2019-05-23T05:43:06.134Z,24.76
2019-05-23T05:43:06.708Z,24.79
2019-05-23T05:43:07.304Z,24.85
2019-05-23T05:43:07.905Z,24.79
2019-05-23T05:43:08.504Z,24.82
2019-05-23T05:44:03.788Z,24.90
2019-05-23T05:44:04.357Z,24.85
2019-05-23T05:44:04.957Z,24.83
2019-05-23T05:44:05.558Z,24.87
2019-05-23T05:44:06.157Z,24.82
2019-05-23T05:44:06.758Z,24.87
2019-05-23T05:45:02.462Z,24.87
2019-05-23T05:45:03.032Z,24.82
2019-05-23T05:45:03.714Z,24.88
2019-05-23T05:45:04.564Z,24.85
2019-05-23T05:45:04.834Z,24.90
2019-05-23T05:45:05.433Z,24.82
2019-05-23T05:46:00.116Z,24.68
2019-05-23T05:46:00.685Z,24.75
2019-05-23T05:46:01.285Z,24.69
2019-05-23T05:46:01.892Z,24.68
2019-05-23T05:46:02.484Z,24.68
2019-05-23T05:46:04.285Z,24.61
2019-05-23T05:46:58.788Z,24.16
2019-05-23T05:46:59.362Z,24.16
2019-05-23T05:46:59.968Z,24.08
2019-05-23T05:47:00.559Z,24.08
2019-05-23T05:47:01.164Z,24.05
2019-05-23T05:47:57.475Z,23.23
2019-05-23T05:47:58.036Z,23.23
2019-05-23T05:47:58.636Z,23.23
2019-05-23T05:47:59.239Z,23.23
2019-05-23T05:47:59.838Z,23.14
2019-05-23T05:48:00.435Z,23.11
2019-05-23T05:49:07.816Z,21.91
2019-05-23T05:49:08.387Z,22.01
2019-05-23T05:49:09.019Z,21.90
2019-05-23T05:49:09.591Z,22.01
2019-05-23T05:49:10.182Z,21.94
2019-05-23T05:49:10.783Z,21.88
2019-05-23T05:50:05.465Z,21.01
2019-05-23T05:50:06.052Z,20.98
2019-05-23T05:50:06.640Z,21.04
2019-05-23T05:50:07.238Z,20.95
2019-05-23T05:50:07.837Z,20.93
2019-05-23T05:50:08.438Z,20.95
2019-05-23T05:51:03.123Z,20.24
2019-05-23T05:51:03.719Z,20.21
2019-05-23T05:51:04.373Z,20.13
2019-05-23T05:51:04.924Z,20.21
2019-05-23T05:51:05.644Z,20.24
2019-05-23T05:52:00.769Z,19.54
2019-05-23T05:52:01.343Z,19.58
2019-05-23T05:52:01.941Z,19.51
2019-05-23T05:52:02.548Z,19.57
2019-05-23T05:52:03.141Z,19.57
2019-05-23T05:52:03.743Z,19.54
2019-05-23T05:52:59.445Z,18.97
2019-05-23T05:53:00.024Z,18.99
2019-05-23T05:53:00.615Z,18.99
2019-05-23T05:53:01.214Z,18.91
2019-05-23T05:53:01.815Z,18.87
2019-05-23T05:53:02.415Z,19.01
2019-05-23T05:53:57.096Z,18.59
2019-05-23T05:53:57.669Z,18.57
2019-05-23T05:53:58.268Z,18.55
2019-05-23T05:53:58.870Z,18.70
2019-05-23T05:53:59.470Z,18.59
2019-05-23T05:54:01.268Z,18.57
2019-05-23T05:54:55.772Z,18.17
2019-05-23T05:54:56.346Z,18.22
2019-05-23T05:54:56.943Z,18.17
2019-05-23T05:55:00.818Z,18.15
2019-05-23T05:55:00.893Z,18.10
2019-05-23T05:55:54.450Z,17.81
2019-05-23T05:55:55.020Z,17.81
2019-05-23T05:55:55.619Z,17.81
2019-05-23T05:55:56.219Z,17.85
2019-05-23T05:55:56.820Z,17.79
2019-05-23T05:55:57.423Z,17.88
2019-05-23T05:56:52.102Z,17.59
2019-05-23T05:56:52.672Z,17.63
2019-05-23T05:56:53.271Z,17.63
2019-05-23T05:56:53.884Z,17.67
2019-05-23T05:56:54.470Z,17.66
2019-05-23T05:56:55.071Z,17.57
2019-05-23T05:57:50.932Z,17.50
2019-05-23T05:57:51.780Z,17.48
2019-05-23T05:57:51.946Z,17.50
2019-05-23T05:57:52.551Z,17.46
2019-05-23T05:57:53.145Z,17.50
2019-05-23T05:57:54.961Z,17.47
2019-05-23T05:58:48.427Z,17.33
2019-05-23T05:58:49.000Z,17.30
2019-05-23T05:58:49.612Z,17.33
2019-05-23T05:58:50.199Z,17.33
2019-05-23T05:58:50.799Z,17.29
2019-05-23T05:59:46.119Z,17.22
2019-05-23T05:59:46.652Z,17.26
2019-05-23T05:59:47.253Z,17.15
2019-05-23T05:59:47.852Z,17.20
2019-05-23T05:59:48.455Z,17.33
2019-05-23T05:59:49.051Z,17.28
2019-05-23T06:00:44.755Z,17.06
2019-05-23T06:00:45.328Z,17.15
2019-05-23T06:00:45.926Z,17.14
2019-05-23T06:00:46.527Z,17.10
2019-05-23T06:00:47.128Z,17.08
2019-05-23T06:00:47.730Z,17.11
2019-05-23T06:01:43.437Z,17.04
2019-05-23T06:01:44.001Z,16.99
2019-05-23T06:01:44.601Z,17.04
2019-05-23T06:01:45.201Z,17.03
2019-05-23T06:01:45.811Z,17.07
2019-05-23T06:01:46.399Z,17.07
2019-05-23T06:02:42.105Z,16.95
2019-05-23T06:02:42.697Z,16.92
2019-05-23T06:03:00.767Z,16.99
2019-05-23T06:03:00.855Z,16.93
2019-05-23T06:03:00.861Z,16.89
2019-05-23T06:03:02.715Z,16.96
2019-05-23T06:03:40.781Z,16.88
2019-05-23T06:03:41.356Z,16.88
2019-05-23T06:03:41.953Z,16.89
2019-05-23T06:03:42.553Z,16.90
2019-05-23T06:03:43.152Z,16.90
2019-05-23T06:04:39.462Z,16.90
2019-05-23T06:04:40.031Z,16.88
2019-05-23T06:04:40.636Z,16.92
2019-05-23T06:04:41.228Z,16.90
2019-05-23T06:04:41.833Z,16.95
2019-05-23T06:04:42.431Z,16.88
2019-05-23T06:05:38.141Z,16.75
2019-05-23T06:05:38.704Z,16.83
2019-05-23T06:05:39.303Z,16.74
2019-05-23T06:05:39.906Z,16.74
2019-05-23T06:05:40.505Z,16.77
2019-05-23T06:05:41.113Z,16.75
2019-05-23T06:06:36.809Z,16.77
2019-05-23T06:06:37.380Z,16.78
2019-05-23T06:06:37.981Z,16.75
2019-05-23T06:06:38.579Z,16.75
2019-05-23T06:06:39.179Z,16.80
2019-05-23T06:06:39.782Z,16.78
2019-05-23T06:07:35.486Z,16.85
2019-05-23T06:07:36.059Z,16.74
2019-05-23T06:07:36.655Z,16.74
2019-05-23T06:07:37.262Z,16.78
2019-05-23T06:07:37.855Z,16.78
2019-05-23T06:07:39.655Z,16.85
2019-05-23T06:08:34.170Z,16.73
2019-05-23T06:08:34.731Z,16.71
2019-05-23T06:08:35.331Z,16.86
2019-05-23T06:08:35.931Z,16.75
2019-05-23T06:08:36.533Z,16.81
2019-05-23T06:09:32.837Z,16.78
2019-05-23T06:09:33.409Z,16.81
2019-05-23T06:09:34.007Z,16.85
2019-05-23T06:09:34.611Z,16.86
2019-05-23T06:09:35.207Z,16.74
2019-05-23T06:09:35.811Z,16.71
2019-05-23T06:10:30.487Z,16.88
2019-05-23T06:10:31.064Z,16.74
2019-05-23T06:10:31.660Z,16.83
2019-05-23T06:10:32.264Z,16.81
2019-05-23T06:10:32.861Z,16.71
2019-05-23T06:10:33.459Z,16.74
2019-05-23T06:11:28.139Z,16.70
2019-05-23T06:11:28.711Z,16.88
2019-05-23T06:11:29.325Z,16.70
2019-05-23T06:11:29.911Z,16.77
2019-05-23T06:11:30.511Z,16.77
2019-05-23T06:12:25.803Z,16.74
2019-05-23T06:12:26.362Z,16.83
2019-05-23T06:12:26.962Z,16.74
2019-05-23T06:12:27.565Z,16.75
2019-05-23T06:12:28.167Z,16.88
2019-05-23T06:12:28.761Z,16.81
2019-05-23T06:13:23.442Z,16.83
2019-05-23T06:13:24.015Z,16.80
2019-05-23T06:13:24.614Z,16.88
2019-05-23T06:13:25.216Z,16.90
2019-05-23T06:13:25.816Z,16.89
2019-05-23T06:13:26.414Z,16.92
2019-05-23T06:14:22.124Z,16.93
2019-05-23T06:14:22.693Z,16.90
2019-05-23T06:14:23.295Z,16.88
2019-05-23T06:14:23.892Z,16.93
2019-05-23T06:14:24.508Z,16.88
2019-05-23T06:14:26.290Z,16.88
2019-05-23T06:15:19.770Z,16.90
2019-05-23T06:15:20.351Z,16.92
2019-05-23T06:15:20.944Z,16.86
2019-05-23T06:15:21.544Z,16.88
2019-05-23T06:15:22.142Z,16.88
2019-05-23T06:16:17.454Z,16.93
2019-05-23T06:16:18.008Z,16.88
2019-05-23T06:16:18.602Z,16.95
2019-05-23T06:16:19.212Z,16.89
2019-05-23T06:16:19.795Z,16.88
2019-05-23T06:16:20.393Z,16.90
2019-05-23T06:17:16.115Z,16.98
2019-05-23T06:17:16.670Z,16.98
2019-05-23T06:17:17.271Z,16.93
2019-05-23T06:17:17.868Z,16.95
2019-05-23T06:17:18.471Z,16.96
2019-05-23T06:17:19.067Z,16.96
2019-05-23T06:18:13.748Z,16.77
2019-05-23T06:18:14.322Z,16.78
2019-05-23T06:18:14.921Z,16.86
2019-05-23T06:18:15.521Z,16.85
2019-05-23T06:18:16.129Z,16.77
2019-05-23T06:18:17.925Z,16.77
2019-05-23T06:19:12.426Z,16.83
2019-05-23T06:19:13.005Z,16.83
2019-05-23T06:19:13.598Z,16.90
2019-05-23T06:19:14.198Z,16.83
2019-05-23T06:19:14.797Z,16.83
2019-05-23T06:20:10.077Z,16.88
2019-05-23T06:20:10.652Z,16.83
2019-05-23T06:20:11.249Z,16.90
2019-05-23T06:20:11.848Z,16.81
2019-05-23T06:20:12.448Z,16.85
2019-05-23T06:20:13.050Z,16.92
2019-05-23T06:21:07.728Z,16.88
2019-05-23T06:21:08.303Z,16.83
2019-05-23T06:21:08.900Z,16.90
2019-05-23T06:21:09.502Z,16.89
2019-05-23T06:21:10.106Z,16.92
2019-05-23T06:21:10.706Z,16.92
2019-05-23T06:22:05.407Z,16.83
2019-05-23T06:22:05.954Z,16.89
2019-05-23T06:22:06.552Z,16.89
2019-05-23T06:22:07.153Z,16.88
2019-05-23T06:22:07.752Z,16.88
2019-05-23T06:23:03.035Z,16.90
2019-05-23T06:23:03.626Z,16.88
2019-05-23T06:23:04.205Z,16.90
2019-05-23T06:23:04.813Z,16.88
2019-05-23T06:23:05.414Z,16.88
2019-05-23T06:23:06.002Z,16.93
2019-05-23T06:24:00.690Z,16.86
2019-05-23T06:24:01.256Z,16.89
2019-05-23T06:24:01.858Z,16.93
2019-05-23T06:24:02.457Z,16.85
2019-05-23T06:24:03.059Z,16.89
2019-05-23T06:24:03.658Z,16.89
2019-05-23T06:24:58.398Z,16.95
2019-05-23T06:24:58.910Z,16.90
2019-05-23T06:24:59.509Z,16.92
2019-05-23T06:25:00.122Z,16.90
2019-05-23T06:25:00.723Z,16.96
2019-05-23T06:25:55.987Z,16.98
2019-05-23T06:25:56.558Z,16.99
2019-05-23T06:25:57.160Z,16.99
2019-05-23T06:25:57.761Z,16.95
2019-05-23T06:25:58.361Z,16.98
2019-05-23T06:25:58.959Z,16.96
2019-05-23T06:26:53.640Z,17.04
2019-05-23T06:26:54.211Z,16.98
2019-05-23T06:26:54.812Z,17.07
2019-05-23T06:26:55.412Z,17.07
2019-05-23T06:26:56.011Z,17.07
2019-05-23T06:26:56.611Z,17.08
2019-05-23T06:27:51.290Z,17.03
2019-05-23T06:27:51.862Z,17.10
2019-05-23T06:27:52.462Z,16.98
2019-05-23T06:27:53.062Z,17.04
2019-05-23T06:27:53.663Z,17.08
2019-05-23T06:28:49.965Z,17.08
2019-05-23T06:28:50.537Z,17.04
2019-05-23T06:28:51.147Z,17.11
2019-05-23T06:28:51.758Z,17.07
2019-05-23T06:28:52.340Z,17.04
2019-05-23T06:28:52.937Z,17.07
2019-05-23T06:29:47.618Z,17.10
2019-05-23T06:29:48.190Z,17.11
2019-05-23T06:29:48.792Z,17.10
2019-05-23T06:29:49.392Z,17.22
2019-05-23T06:29:49.994Z,17.06
2019-05-23T06:29:50.590Z,17.08
2019-05-23T06:30:45.270Z,17.11
2019-05-23T06:30:45.845Z,17.18
2019-05-23T06:30:46.454Z,17.15
2019-05-23T06:30:47.041Z,17.07
2019-05-23T06:30:47.647Z,17.07
2019-05-23T06:31:43.945Z,17.13
2019-05-23T06:31:44.522Z,17.13
2019-05-23T06:31:45.122Z,17.18
2019-05-23T06:31:45.718Z,17.22
2019-05-23T06:31:46.329Z,17.15
2019-05-23T06:31:46.916Z,17.18
2019-05-23T06:32:41.630Z,17.18
2019-05-23T06:32:42.167Z,17.18
2019-05-23T06:32:42.774Z,17.23
2019-05-23T06:32:43.369Z,17.25
2019-05-23T06:32:43.974Z,17.25
2019-05-23T06:32:44.567Z,17.25
2019-05-23T06:33:39.252Z,17.28
2019-05-23T06:33:39.819Z,17.26
2019-05-23T06:33:40.423Z,17.28
2019-05-23T06:33:41.025Z,17.25
2019-05-23T06:33:41.619Z,17.28